Casco, WI (54205)

8:08 PM CDT on July 23, 2016 (GMT -0500)
Beauty View Road; Town of Union | | Change Station

Elev 574 ft 44.69 °N, 87.72 °W | Updated 49 minutes ago

Clear
Clear
77.0 °F
Feels Like 79 °F
N
6.3
Wind Variable Wind from ESE

Today
High -- | Low -- °F
--% Chance of Precip.
Yesterday
High -- | Low -- °F
Precip. -- in
Pressure 29.95 in
Visibility 10.0 miles
Clouds Clear
Heat Index 79 °F
Dew Point 66 °F
Humidity 69%
Rainfall in
Snow Depth Not available.
5:27 AM 8:25 PM
Waning Gibbous, 81% visible
METAR KSUE 240056Z AUTO 15005KT 10SM CLR 23/18 A2992 RMK AO2 SLP141 T02330178
Pressure 29.95 in
Visibility 10.0 miles
Clouds Clear
Heat Index 79 °F
Dew Point 66 °F
Humidity 69%
Rainfall in
Snow Depth Not available.
5:27 AM 8:25 PM
Waning Gibbous, 81% visible
METAR KSUE 240056Z AUTO 15005KT 10SM CLR 23/18 A2992 RMK AO2 SLP141 T02330178

10-Day Weather Forecast

Almanac

Astronomy

Jul. 23, 2016 Rise Set
Actual Time
Civil Twilight
Nautical Twilight
Astronomical Twilight
Moon
Length of Visible Light
Length of Day
Tomorrow will be .
, % of the Moon is Illuminated

Today's Extremes

State Highs State Lows

Community

WunderPhotos

Upload Photos

1,926,992 photos uploaded!

WunderBlog® & News

Nearby

Air Quality

  Air Quality AQ Index Pollutant
Not available.

Snow Depth

Station Depth Elevation

Earthquake Activity

City Distance Mag. Time & Date
Minimum magnitude displayed is 2.5.

Coastal Water Temperatures

Place Temperature

Stations

Nearby Weather Stations

Station Location Temp. Windchill Dew Point Humidity Wind Precip. Elev Updated Type
                   

Watches & Warnings

There are currently no watches in effect.